Terminal Aerodrome Forecast
Issued by NWS

Home | Current Version | Previous Version | Text Only | Print | Product List | Glossary On
Versions: 1 2 3 4 5 6 7 8 9 10 11 12 13 14 15 16
699
FTUS44 KMAF 201120
TAFINK
TAF
KINK 201120Z 2012/2112 25012KT P6SM FEW150
     FM201600 26022G30KT P6SM SCT120
     FM210100 24011KT P6SM BKN100=

USA.gov is the U.S. government's official web portal to all federal, state and local government web resources and services.